Terminal Aerodrome Forecast
Issued by NWS Charleston, WV

Current Version | Previous Version | Graphics & Text | Print | Product List | Glossary On
Versions: 1 2 3 4 5 6 7 8 9 10 11 12 13 14 15 16 17 18 19 20 21 22
815
FTUS41 KRLX 301730
TAFHTS
TAF
KHTS 301730Z 3018/0118 18010KT P6SM SCT030 OVC100
     FM010000 27009G20KT P6SM VCSH BKN030
     FM010100 27009G18KT P6SM BKN080
     FM010500 26007KT P6SM SCT250
     FM011600 26009G16KT P6SM SCT035=

USA.gov is the U.S. government's official web portal to all federal, state and local government web resources and services.